createdAt,value
2023-03-15T00:01:39.820Z,9.20
2023-03-15T00:04:07.377Z,9.87
2023-03-15T00:06:37.103Z,14.17
2023-03-15T00:09:05.136Z,15.17
2023-03-15T00:11:32.547Z,10.47
2023-03-15T00:14:02.239Z,9.17
2023-03-15T00:16:29.814Z,17.90
2023-03-15T00:18:58.362Z,27.13
2023-03-15T00:21:25.861Z,14.17
2023-03-15T00:23:53.600Z,12.43
2023-03-15T00:26:21.133Z,18.20
2023-03-15T00:28:50.946Z,10.47
2023-03-15T00:31:20.843Z,13.17
2023-03-15T00:33:48.516Z,10.97
2023-03-15T00:36:16.993Z,11.20
2023-03-15T00:38:44.469Z,10.47
2023-03-15T00:41:13.314Z,15.33
2023-03-15T00:43:40.936Z,9.77
2023-03-15T00:46:09.193Z,8.87
2023-03-15T00:48:39.071Z,14.90
2023-03-15T00:51:19.891Z,12.93
2023-03-15T00:53:47.547Z,9.77
2023-03-15T00:56:16.948Z,10.47
2023-03-15T00:58:44.590Z,11.30
2023-03-15T01:01:21.295Z,7.53
2023-03-15T01:03:49.352Z,8.80
2023-03-15T01:06:18.577Z,8.20
2023-03-15T01:08:46.411Z,11.20
2023-03-15T01:11:18.457Z,5.93
2023-03-15T01:13:46.092Z,8.80
2023-03-15T01:16:14.618Z,11.93
2023-03-15T01:18:42.548Z,8.57
2023-03-15T01:21:11.620Z,13.50
2023-03-15T01:23:39.252Z,10.73
2023-03-15T01:26:08.267Z,9.93
2023-03-15T01:28:35.714Z,10.73
2023-03-15T01:31:05.301Z,11.63
2023-03-15T01:33:32.941Z,11.73
2023-03-15T01:36:01.165Z,14.63
2023-03-15T01:38:28.769Z,11.17
2023-03-15T01:40:56.268Z,10.00
2023-03-15T01:43:26.188Z,10.43
2023-03-15T01:46:13.579Z,11.47
2023-03-15T01:48:46.000Z,8.93
2023-03-15T01:51:22.995Z,10.13
2023-03-15T01:53:54.217Z,8.43
2023-03-15T01:56:22.754Z,10.93
2023-03-15T01:58:51.479Z,10.93
2023-03-15T02:01:20.558Z,9.70
2023-03-15T02:03:49.565Z,15.73
2023-03-15T02:06:18.891Z,9.37
2023-03-15T02:08:50.929Z,11.67
2023-03-15T02:11:23.410Z,13.47
2023-03-15T02:13:51.106Z,12.17
2023-03-15T02:16:19.376Z,11.80
2023-03-15T02:18:54.418Z,11.63
2023-03-15T02:21:41.791Z,11.85
2023-03-15T02:24:16.137Z,13.70
2023-03-15T02:26:45.579Z,14.00
2023-03-15T02:29:13.197Z,10.67
2023-03-15T02:31:40.811Z,12.30
2023-03-15T02:34:08.889Z,10.97
2023-03-15T02:36:37.361Z,12.10
2023-03-15T02:39:14.774Z,15.90
2023-03-15T02:41:46.033Z,12.53
2023-03-15T02:44:17.050Z,12.77
2023-03-15T02:46:47.258Z,17.23
2023-03-15T02:49:14.776Z,19.67
2023-03-15T02:51:42.377Z,12.13
2023-03-15T02:54:09.878Z,14.70
2023-03-15T02:56:37.589Z,12.30
2023-03-15T02:59:05.070Z,14.43
2023-03-15T03:01:32.577Z,10.13
2023-03-15T03:04:00.019Z,13.20
2023-03-15T03:06:27.691Z,10.83
2023-03-15T03:08:55.210Z,13.10
2023-03-15T03:11:22.559Z,15.33
2023-03-15T03:13:57.305Z,10.87
2023-03-15T03:16:24.984Z,12.20
2023-03-15T03:18:52.589Z,9.97
2023-03-15T03:21:20.299Z,11.33
2023-03-15T03:23:47.863Z,13.23
2023-03-15T03:26:17.151Z,16.73
2023-03-15T03:28:45.857Z,14.03
2023-03-15T03:31:17.501Z,15.10
2023-03-15T03:33:47.723Z,15.13
2023-03-15T03:36:15.631Z,15.17
2023-03-15T03:38:43.947Z,13.07
2023-03-15T03:41:12.247Z,13.93
2023-03-15T03:43:39.949Z,8.60
2023-03-15T03:46:07.549Z,9.60
2023-03-15T03:48:35.367Z,11.40
2023-03-15T03:51:05.442Z,12.63
2023-03-15T03:53:33.056Z,13.00
2023-03-15T03:56:04.278Z,13.57
2023-03-15T03:58:31.819Z,9.47
2023-03-15T04:00:59.570Z,12.30
2023-03-15T04:03:29.529Z,16.13
2023-03-15T04:05:57.566Z,14.87
2023-03-15T04:08:26.003Z,10.03
2023-03-15T04:10:54.343Z,11.90
2023-03-15T04:13:22.271Z,8.43
2023-03-15T04:15:49.789Z,8.73
2023-03-15T04:18:17.576Z,10.53
2023-03-15T04:20:47.151Z,7.93
2023-03-15T04:23:15.392Z,9.03
2023-03-15T04:25:43.408Z,11.37
2023-03-15T04:28:11.114Z,5.17
2023-03-15T04:30:41.227Z,9.40
2023-03-15T04:33:11.423Z,9.50
2023-03-15T04:35:40.975Z,9.00
2023-03-15T04:38:08.512Z,6.80
2023-03-15T04:40:36.417Z,4.17
2023-03-15T04:43:05.483Z,11.83
2023-03-15T04:45:33.199Z,7.70
2023-03-15T04:48:01.677Z,6.67
2023-03-15T04:50:32.151Z,12.80
2023-03-15T04:53:00.105Z,8.07
2023-03-15T04:55:27.682Z,9.77
2023-03-15T04:57:55.653Z,8.57
2023-03-15T05:00:26.238Z,9.03
2023-03-15T05:02:55.180Z,7.83
2023-03-15T05:05:25.519Z,15.37
2023-03-15T05:07:53.206Z,13.57
2023-03-15T05:10:20.903Z,7.17
2023-03-15T05:12:49.412Z,11.40
2023-03-15T05:15:17.038Z,13.07
2023-03-15T05:17:46.624Z,7.67
2023-03-15T05:20:14.931Z,11.40
2023-03-15T05:22:44.935Z,8.03
2023-03-15T05:25:12.502Z,16.73
2023-03-15T05:27:40.066Z,12.03
2023-03-15T05:30:09.003Z,8.33
2023-03-15T05:32:39.706Z,11.47
2023-03-15T05:35:08.645Z,10.77
2023-03-15T05:37:36.242Z,12.53
2023-03-15T05:40:08.332Z,11.60
2023-03-15T05:42:36.372Z,11.87
2023-03-15T05:45:04.197Z,11.27
2023-03-15T05:47:33.250Z,11.43
2023-03-15T05:50:01.918Z,10.77
2023-03-15T05:52:29.544Z,11.83
2023-03-15T05:54:57.067Z,14.37
2023-03-15T05:57:24.538Z,10.77
2023-03-15T05:59:54.082Z,8.67
2023-03-15T06:02:23.599Z,12.00
2023-03-15T06:04:51.274Z,7.27
2023-03-15T06:07:19.050Z,10.77
2023-03-15T06:09:49.094Z,8.83
2023-03-15T06:12:16.554Z,7.17
2023-03-15T06:14:44.322Z,13.63
2023-03-15T06:17:11.979Z,12.07
2023-03-15T06:19:49.557Z,8.23
2023-03-15T06:22:40.348Z,7.77
2023-03-15T06:25:08.318Z,4.37
2023-03-15T06:27:35.965Z,9.83
2023-03-15T06:30:03.607Z,9.00
2023-03-15T06:32:31.328Z,6.87
2023-03-15T06:34:58.860Z,10.73
2023-03-15T06:37:35.376Z,5.97
2023-03-15T06:40:07.406Z,12.00
2023-03-15T06:42:35.028Z,7.10
2023-03-15T06:45:03.625Z,28.17
2023-03-15T06:47:31.186Z,12.93
2023-03-15T06:50:18.533Z,11.10
2023-03-15T06:52:46.096Z,12.37
2023-03-15T06:55:21.557Z,11.50
2023-03-15T07:09:29.277Z,9.93
2023-03-15T07:11:57.086Z,11.77
2023-03-15T07:14:36.079Z,8.60
2023-03-15T07:17:18.104Z,11.00
2023-03-15T07:19:56.330Z,6.90
2023-03-15T07:22:48.033Z,5.40
2023-03-15T07:25:37.663Z,7.83
2023-03-15T07:28:13.131Z,6.97
2023-03-15T07:30:44.883Z,8.40
2023-03-15T07:33:23.522Z,7.80
2023-03-15T07:35:54.088Z,8.07
2023-03-15T08:01:29.398Z,9.00
2023-03-15T09:33:06.924Z,6.50
2023-03-15T09:54:28.730Z,6.67
2023-03-15T10:00:49.395Z,7.03
2023-03-15T10:04:29.014Z,14.43
2023-03-15T10:07:27.247Z,10.00
2023-03-15T10:54:06.137Z,10.03
2023-03-15T10:57:13.084Z,11.60
2023-03-15T11:02:47.053Z,8.90
2023-03-15T11:05:26.497Z,7.47
2023-03-15T11:11:53.248Z,16.67
2023-03-15T11:14:28.500Z,7.33
2023-03-15T11:17:21.790Z,10.53
2023-03-15T11:23:30.967Z,9.13
2023-03-15T11:26:51.564Z,14.77
2023-03-15T11:29:16.054Z,8.77
2023-03-15T11:35:38.900Z,11.73
2023-03-15T11:40:01.746Z,8.60
2023-03-15T11:42:23.827Z,8.37
2023-03-15T11:55:57.672Z,8.60
2023-03-15T13:20:37.411Z,8.03
2023-03-15T17:40:53.458Z,46.30
2023-03-15T17:44:23.117Z,44.43
2023-03-15T17:47:11.045Z,32.47
2023-03-15T17:53:14.849Z,28.57
2023-03-15T17:55:55.558Z,19.13
2023-03-15T17:58:53.519Z,25.17
2023-03-15T18:01:35.973Z,21.33
2023-03-15T18:04:30.214Z,28.93
2023-03-15T18:10:18.603Z,48.13
2023-03-15T18:13:05.164Z,38.90
2023-03-15T18:16:03.747Z,44.27
2023-03-15T18:19:03.579Z,41.60
2023-03-15T18:21:38.019Z,33.43
2023-03-15T18:24:20.877Z,27.30
2023-03-15T18:27:19.449Z,19.77
2023-03-15T18:29:54.905Z,20.13
2023-03-15T18:38:54.245Z,44.37
2023-03-15T18:41:36.556Z,35.87
2023-03-15T18:44:19.961Z,32.70
2023-03-15T18:49:51.194Z,35.23
2023-03-15T18:52:26.459Z,32.93
2023-03-15T18:55:58.657Z,61.67
2023-03-15T18:58:57.588Z,35.03
2023-03-15T19:01:35.328Z,24.20
2023-03-15T19:04:10.485Z,17.93
2023-03-15T19:06:38.243Z,28.63
2023-03-15T19:09:05.819Z,20.73
2023-03-15T19:11:58.317Z,19.20
2023-03-15T19:14:29.348Z,26.73
2023-03-15T19:16:58.838Z,18.47
2023-03-15T19:19:35.966Z,19.10
2023-03-15T19:22:05.894Z,22.53
2023-03-15T19:30:20.691Z,15.70
2023-03-15T19:33:14.582Z,16.63
2023-03-15T19:35:43.480Z,16.07
2023-03-15T19:38:20.285Z,19.30
2023-03-15T19:43:35.214Z,12.97
2023-03-15T19:46:27.819Z,11.50
2023-03-15T19:49:05.324Z,12.60
2023-03-15T19:51:43.183Z,15.60
2023-03-15T20:00:11.095Z,13.87
2023-03-15T20:02:39.349Z,8.53
2023-03-15T20:05:22.296Z,10.40
2023-03-15T20:07:52.135Z,12.50
2023-03-15T20:10:42.860Z,11.63
2023-03-15T20:13:23.962Z,11.47
2023-03-15T20:15:55.116Z,12.67
2023-03-15T20:18:45.986Z,14.33
2023-03-15T20:21:22.989Z,16.40
2023-03-15T20:23:56.757Z,21.23
2023-03-15T20:26:25.651Z,20.40
2023-03-15T20:29:06.379Z,15.13
2023-03-15T20:31:46.289Z,17.10
2023-03-15T20:34:27.744Z,17.80
2023-03-15T20:37:11.863Z,14.77
2023-03-15T20:39:56.698Z,15.17
2023-03-15T20:42:31.646Z,12.20
2023-03-15T20:45:09.017Z,13.50
2023-03-15T20:53:30.734Z,20.43
2023-03-15T20:56:05.218Z,17.00
2023-03-15T20:58:35.339Z,19.70
2023-03-15T21:01:17.651Z,20.07
2023-03-15T21:04:08.730Z,21.30
2023-03-15T21:06:44.054Z,12.97
2023-03-15T21:12:15.709Z,21.70
2023-03-15T21:27:23.476Z,16.60
2023-03-15T21:29:54.882Z,20.60
2023-03-15T21:32:31.079Z,18.00
2023-03-15T21:35:01.499Z,19.60
2023-03-15T21:56:46.629Z,19.07
2023-03-15T21:59:29.317Z,15.13
2023-03-15T22:02:15.584Z,15.60
2023-03-15T22:07:51.973Z,19.20
2023-03-15T22:19:19.169Z,17.23
2023-03-15T22:29:11.467Z,13.87
2023-03-15T22:32:19.516Z,18.33
2023-03-15T22:35:28.389Z,13.57
2023-03-15T22:38:14.431Z,14.97
2023-03-15T22:44:22.836Z,14.40
2023-03-15T22:49:35.118Z,18.63
2023-03-15T22:52:18.902Z,14.52
2023-03-15T22:55:07.282Z,16.90
2023-03-15T22:57:59.905Z,21.50
2023-03-15T23:00:31.355Z,18.13
2023-03-15T23:03:06.517Z,15.33
2023-03-15T23:05:37.318Z,17.10
2023-03-15T23:08:22.885Z,15.47
2023-03-15T23:11:12.101Z,18.52
2023-03-15T23:13:58.362Z,13.77
2023-03-15T23:16:37.077Z,19.57
2023-03-15T23:19:21.264Z,15.07
2023-03-15T23:22:04.562Z,16.83
2023-03-15T23:24:47.383Z,14.07
2023-03-15T23:27:25.037Z,18.47
2023-03-15T23:30:03.353Z,18.03
2023-03-15T23:32:49.909Z,19.53
2023-03-15T23:35:42.423Z,13.13
2023-03-15T23:38:30.147Z,15.60
2023-03-15T23:41:30.423Z,17.90
2023-03-15T23:44:09.115Z,17.60
2023-03-15T23:46:42.443Z,15.97
2023-03-15T23:49:20.443Z,16.77
2023-03-15T23:52:10.430Z,14.93
2023-03-15T23:54:44.894Z,14.17
2023-03-15T23:57:28.480Z,19.50
